Time;durP1;ratioP1;P1;durP2;ratioP2;P2;SDS_P1;SDS_P2;PMS_P1;PMS_P2;Temp;Humidity;BMP_temperature;BMP_pressure;BME280_temperature;BME280_humidity;BME280_pressure;Samples;Min_cycle;Max_cycle;Signal;HPM_P1;HPM_P2
2022/07/25 00:01:38;;;;;;;7.87;7.07;;;23.60;71.80;;;;;;10362002;28;20217;-70
2022/07/25 00:06:39;;;;;;;8.73;7.17;;;23.50;70.90;;;;;;10361597;28;20241;-70
2022/07/25 00:11:41;;;;;;;8.07;6.80;;;23.40;71.80;;;;;;10352943;28;20710;-71
2022/07/25 00:16:41;;;;;;;8.30;7.10;;;23.30;72.40;;;;;;10358087;28;20277;-70
2022/07/25 00:21:42;;;;;;;9.03;7.77;;;23.10;73.10;;;;;;10352534;28;20277;-71
2022/07/25 00:26:43;;;;;;;7.60;6.77;;;23.00;73.50;;;;;;10360180;28;20720;-70
2022/07/25 00:31:43;;;;;;;7.63;6.93;;;22.90;73.80;;;;;;10351933;28;20273;-71
2022/07/25 00:36:44;;;;;;;7.77;6.83;;;22.80;74.80;;;;;;10354264;28;20237;-70
2022/07/25 00:41:45;;;;;;;9.40;7.10;;;22.80;75.30;;;;;;10353848;28;20323;-70
2022/07/25 00:46:45;;;;;;;7.33;6.60;;;22.80;75.90;;;;;;10367371;28;20238;-69
2022/07/25 00:51:46;;;;;;;8.93;7.07;;;22.70;76.50;;;;;;10354365;28;20251;-70
2022/07/25 00:56:48;;;;;;;8.07;7.27;;;22.70;76.70;;;;;;10357179;28;20731;-70
2022/07/25 01:01:49;;;;;;;8.17;7.10;;;22.70;77.50;;;;;;10353642;28;20218;-70
2022/07/25 01:06:52;;;;;;;8.20;7.40;;;22.60;77.70;;;;;;10356266;28;20718;-70
2022/07/25 01:11:53;;;;;;;7.47;6.77;;;22.60;78.40;;;;;;10360535;28;20567;-70
2022/07/25 01:16:53;;;;;;;7.40;6.70;;;22.50;78.90;;;;;;10357011;28;20300;-70
2022/07/25 01:21:55;;;;;;;7.80;6.80;;;22.50;79.40;;;;;;10367939;28;20225;-69
2022/07/25 01:26:55;;;;;;;8.10;7.30;;;22.60;80.40;;;;;;10355340;28;20268;-70
2022/07/25 01:31:56;;;;;;;8.40;7.50;;;22.60;80.60;;;;;;10370388;28;20239;-69
2022/07/25 01:36:56;;;;;;;7.63;6.93;;;22.50;80.90;;;;;;10371961;28;20334;-70
2022/07/25 01:41:57;;;;;;;7.40;6.80;;;22.60;81.20;;;;;;10355986;28;20646;-69
2022/07/25 01:46:57;;;;;;;8.27;6.90;;;22.50;81.90;;;;;;10362809;28;20947;-70
2022/07/25 01:51:59;;;;;;;7.47;6.83;;;22.50;82.80;;;;;;10363161;28;20225;-70
2022/07/25 01:57:00;;;;;;;7.97;7.27;;;22.40;83.60;;;;;;10362231;28;20236;-70
2022/07/25 02:02:00;;;;;;;9.30;6.93;;;22.30;84.30;;;;;;10361582;28;20237;-70
2022/07/25 02:07:04;;;;;;;8.23;7.43;;;22.30;85.00;;;;;;10362584;28;20601;-70
2022/07/25 02:12:06;;;;;;;8.97;7.63;;;22.20;85.80;;;;;;10358560;28;20223;-70
2022/07/25 02:17:06;;;;;;;8.50;7.60;;;22.20;86.50;;;;;;10362195;28;20232;-70
2022/07/25 02:22:07;;;;;;;8.97;7.47;;;22.20;87.40;;;;;;10355867;28;20235;-70
2022/07/25 02:27:07;;;;;;;7.83;7.07;;;22.20;88.00;;;;;;10358660;28;20292;-70
2022/07/25 02:32:08;;;;;;;8.07;7.27;;;22.20;88.00;;;;;;10357723;28;20264;-69
2022/07/25 02:37:09;;;;;;;7.87;7.07;;;22.10;87.40;;;;;;10361611;28;20232;-70
2022/07/25 02:42:09;;;;;;;8.43;7.63;;;22.20;86.50;;;;;;10361112;28;20230;-70
2022/07/25 02:47:10;;;;;;;8.60;7.70;;;22.20;88.40;;;;;;10357143;28;20268;-70
2022/07/25 02:52:10;;;;;;;8.37;7.47;;;22.10;90.20;;;;;;10352635;28;20230;-70
2022/07/25 02:57:11;;;;;;;9.30;7.97;;;22.10;90.70;;;;;;10354999;28;20820;-70
2022/07/25 03:02:12;;;;;;;9.23;7.47;;;22.00;90.80;;;;;;10364609;28;20217;-70
2022/07/25 03:07:12;;;;;;;8.30;7.60;;;21.80;91.30;;;;;;10371526;28;20229;-70
2022/07/25 03:12:13;;;;;;;9.17;8.00;;;21.60;92.10;;;;;;10354504;28;20240;-70
2022/07/25 03:17:13;;;;;;;8.67;7.53;;;21.40;92.70;;;;;;10359702;28;20644;-70
2022/07/25 03:22:14;;;;;;;8.73;7.67;;;21.40;93.80;;;;;;10362610;28;20236;-70
2022/07/25 03:27:15;;;;;;;8.20;7.50;;;21.30;94.70;;;;;;10348006;28;20238;-71
2022/07/25 03:32:15;;;;;;;8.97;8.17;;;21.10;95.40;;;;;;10370491;28;20221;-70
2022/07/25 03:37:19;;;;;;;8.93;8.03;;;21.00;96.60;;;;;;10348795;28;20245;-70
2022/07/25 03:42:19;;;;;;;8.67;7.73;;;20.90;98.10;;;;;;10362383;28;20241;-69
2022/07/25 03:47:20;;;;;;;9.27;8.13;;;20.80;99.30;;;;;;10353658;28;20260;-70
2022/07/25 03:52:21;;;;;;;8.90;8.00;;;20.70;99.90;;;;;;10353297;28;20218;-69
2022/07/25 03:57:21;;;;;;;10.10;8.17;;;20.70;99.90;;;;;;10363313;28;20259;-71
2022/07/25 04:02:22;;;;;;;7.67;6.97;;;20.70;99.90;;;;;;10356373;28;20225;-72
2022/07/25 04:07:25;;;;;;;9.03;7.90;;;20.70;99.90;;;;;;10357878;28;20266;-71
2022/07/25 04:12:26;;;;;;;9.17;7.67;;;20.70;99.90;;;;;;10364065;28;20225;-71
2022/07/25 04:17:30;;;;;;;9.17;8.37;;;20.70;99.90;;;;;;10353914;28;20308;-71
2022/07/25 04:22:34;;;;;;;9.07;8.17;;;20.60;99.90;;;;;;10353144;28;20261;-72
2022/07/25 04:27:37;;;;;;;9.07;8.17;;;20.70;99.90;;;;;;10353323;28;20233;-70
2022/07/25 04:32:38;;;;;;;8.80;7.90;;;20.80;99.90;;;;;;10361057;28;20221;-69
2022/07/25 04:37:38;;;;;;;10.07;8.47;;;21.00;99.90;;;;;;10355130;28;20752;-70
2022/07/25 04:42:39;;;;;;;11.37;9.00;;;21.10;99.90;;;;;;10346438;28;20285;-70
2022/07/25 04:47:39;;;;;;;8.30;7.33;;;21.30;99.90;;;;;;10359709;28;20240;-69
2022/07/25 04:52:46;;;;;;;8.33;7.40;;;21.40;99.90;;;;;;10353193;28;20236;-69
2022/07/25 04:57:47;;;;;;;9.40;8.60;;;21.60;99.90;;;;;;10362820;28;20217;-70
2022/07/25 05:02:48;;;;;;;9.00;8.20;;;21.90;99.90;;;;;;10356397;28;20221;-68
2022/07/25 05:07:49;;;;;;;10.10;8.13;;;22.20;99.90;;;;;;10375261;28;20225;-68
2022/07/25 05:12:50;;;;;;;10.97;8.90;;;24.20;98.90;;;;;;10367946;28;20696;-69
2022/07/25 05:17:51;;;;;;;8.80;7.90;;;24.70;95.50;;;;;;10366698;28;20221;-69
2022/07/25 05:22:51;;;;;;;10.17;8.83;;;25.60;92.90;;;;;;10357992;28;20224;-69
2022/07/25 05:27:54;;;;;;;10.50;7.93;;;25.10;92.50;;;;;;10373656;28;20247;-71
2022/07/25 05:32:55;;;;;;;9.03;8.00;;;24.50;93.60;;;;;;10367928;28;20228;-71
2022/07/25 05:37:55;;;;;;;10.77;8.60;;;24.20;94.70;;;;;;10367951;28;20225;-69
2022/07/25 05:42:56;;;;;;;11.83;8.43;;;24.00;94.60;;;;;;10371867;28;20604;-70
2022/07/25 05:48:00;;;;;;;11.23;7.90;;;24.40;94.80;;;;;;10370066;28;20228;-69
2022/07/25 05:53:00;;;;;;;10.57;7.90;;;27.80;87.10;;;;;;10370183;28;20634;-70
2022/07/25 05:58:01;;;;;;;7.40;6.70;;;31.30;68.10;;;;;;10368100;28;20300;-71
2022/07/25 06:03:02;;;;;;;8.40;7.60;;;33.50;57.40;;;;;;10368770;28;20221;-70
2022/07/25 06:08:02;;;;;;;7.37;6.67;;;35.30;51.60;;;;;;10369593;28;20217;-70
2022/07/25 06:13:03;;;;;;;7.60;6.90;;;36.30;47.40;;;;;;10368164;28;20217;-70
2022/07/25 06:18:04;;;;;;;7.70;6.90;;;37.00;44.50;;;;;;10370653;28;20231;-70
2022/07/25 06:23:04;;;;;;;9.37;6.27;;;37.60;42.50;;;;;;10362614;28;20213;-72
2022/07/25 06:28:05;;;;;;;6.90;6.00;;;38.20;41.60;;;;;;10360139;28;20263;-75
2022/07/25 06:33:06;;;;;;;6.30;5.80;;;38.90;40.30;;;;;;10369667;28;20300;-74
2022/07/25 06:38:06;;;;;;;8.30;6.63;;;39.60;38.50;;;;;;10366061;28;20224;-73
2022/07/25 06:43:07;;;;;;;7.60;6.43;;;39.70;37.40;;;;;;10362026;28;20227;-72
2022/07/25 06:48:07;;;;;;;7.77;6.37;;;40.10;36.70;;;;;;10357109;28;20244;-72
2022/07/25 06:53:08;;;;;;;8.03;6.90;;;40.80;36.10;;;;;;10357830;28;20214;-72
2022/07/25 06:58:09;;;;;;;10.33;7.83;;;41.00;35.80;;;;;;10360141;28;20213;-74
2022/07/25 07:03:09;;;;;;;9.13;6.37;;;41.30;35.20;;;;;;10366599;28;20208;-73
2022/07/25 07:08:10;;;;;;;6.70;6.10;;;41.70;34.30;;;;;;10366187;28;20226;-75
2022/07/25 07:13:14;;;;;;;7.63;6.77;;;42.30;33.70;;;;;;10363950;28;20637;-74
2022/07/25 07:18:15;;;;;;;7.23;6.53;;;42.30;33.40;;;;;;10366984;28;20213;-74
2022/07/25 07:23:17;;;;;;;10.17;7.03;;;42.80;33.30;;;;;;10361527;28;20317;-73
2022/07/25 07:28:18;;;;;;;6.97;5.90;;;43.70;31.80;;;;;;10370642;28;20241;-74
2022/07/25 07:33:18;;;;;;;8.53;7.27;;;43.90;31.80;;;;;;10381552;28;20711;-74
2022/07/25 07:38:23;;;;;;;9.88;6.65;;;44.50;31.50;;;;;;10371469;28;20228;-75
2022/07/25 07:43:56;;;;;;;9.40;6.25;;;44.80;30.80;;;;;;10365420;28;20670;-74
2022/07/25 07:49:02;;;;;;;7.40;6.18;;;44.70;30.50;;;;;;10355776;28;20249;-74
2022/07/25 07:59:24;;;;;;;7.65;6.18;;;45.00;30.70;;;;;;10368709;28;20213;-75
2022/07/25 08:04:25;;;;;;;9.60;6.53;;;45.60;30.20;;;;;;10358739;28;20257;-74
2022/07/25 08:09:37;;;;;;;7.93;6.22;;;46.20;29.40;;;;;;10362107;28;20279;-75
2022/07/25 08:14:42;;;;;;;8.82;6.30;;;46.50;28.90;;;;;;10355632;28;20240;-76
2022/07/25 08:19:42;;;;;;;7.20;6.00;;;46.60;28.60;;;;;;10365749;28;20213;-74
2022/07/25 08:24:43;;;;;;;6.95;6.28;;;46.70;28.40;;;;;;10362798;28;20221;-75
2022/07/25 08:29:45;;;;;;;8.63;6.60;;;46.20;28.60;;;;;;10365263;28;20220;-75
2022/07/25 08:34:46;;;;;;;6.70;6.10;;;46.50;28.60;;;;;;10375504;28;20225;-74
2022/07/25 08:39:47;;;;;;;9.35;6.63;;;47.20;28.20;;;;;;10363862;28;20224;-75
2022/07/25 08:44:57;;;;;;;7.43;6.80;;;47.60;27.70;;;;;;10369809;28;20225;-74
2022/07/25 08:49:58;;;;;;;7.78;7.07;;;48.20;27.00;;;;;;10368571;28;20251;-76
2022/07/25 08:55:03;;;;;;;8.10;7.30;;;48.30;27.20;;;;;;10374829;28;20448;-75
2022/07/25 09:00:08;;;;;;;8.30;7.40;;;49.00;26.80;;;;;;10374400;28;20221;-74
2022/07/25 09:05:40;;;;;;;7.90;7.18;;;49.40;26.00;;;;;;10361086;28;20220;-75
2022/07/25 09:10:52;;;;;;;8.23;7.47;;;49.60;25.90;;;;;;10384623;28;20197;-75
2022/07/25 09:15:59;;;;;;;8.68;7.47;;;49.70;26.20;;;;;;10392266;28;20229;-73
2022/07/25 09:21:00;;;;;;;9.95;7.57;;;49.80;25.70;;;;;;10371287;28;20252;-74
2022/07/25 09:26:11;;;;;;;8.25;7.45;;;49.80;26.00;;;;;;10369259;28;20221;-74
2022/07/25 09:31:13;;;;;;;10.32;8.35;;;50.30;25.70;;;;;;10370293;28;20233;-75
2022/07/25 09:36:14;;;;;;;8.40;7.75;;;49.90;25.60;;;;;;10374755;28;20229;-74
2022/07/25 09:41:15;;;;;;;9.27;7.00;;;49.80;25.80;;;;;;10368521;28;20592;-74
2022/07/25 09:46:16;;;;;;;7.45;6.85;;;50.40;25.20;;;;;;10370772;28;20220;-75
2022/07/25 09:51:17;;;;;;;7.20;6.60;;;50.50;24.90;;;;;;10366550;28;20238;-73
2022/07/25 09:56:19;;;;;;;7.40;6.68;;;50.80;24.90;;;;;;10378008;28;20243;-74
2022/07/25 10:01:47;;;;;;;8.23;6.55;;;51.30;24.30;;;;;;10375693;28;20597;-77
2022/07/25 10:07:19;;;;;;;9.23;7.68;;;52.00;23.80;;;;;;10360802;28;20232;-75
2022/07/25 10:12:23;;;;;;;10.60;6.47;;;51.40;23.60;;;;;;10359356;28;20675;-74
2022/07/25 10:17:24;;;;;;;7.78;6.97;;;49.90;24.70;;;;;;10370890;28;20221;-72
2022/07/25 10:22:36;;;;;;;15.60;7.45;;;49.30;25.10;;;;;;10367032;28;20279;-75
2022/07/25 10:27:49;;;;;;;7.13;5.70;;;48.30;26.20;;;;;;10365003;28;20225;-74
2022/07/25 10:33:20;;;;;;;6.95;6.25;;;49.90;24.70;;;;;;10377630;28;20872;-74
2022/07/25 10:38:37;;;;;;;7.90;5.70;;;50.90;24.00;;;;;;10368874;28;20217;-76
2022/07/25 10:43:39;;;;;;;7.13;6.28;;;51.50;22.60;;;;;;10367630;28;20229;-73
2022/07/25 10:48:40;;;;;;;11.40;6.63;;;51.80;22.40;;;;;;10363318;28;20229;-73
2022/07/25 10:53:48;;;;;;;6.88;6.30;;;52.20;22.70;;;;;;10385590;28;20219;-73
2022/07/25 10:59:49;;;;;;;7.03;6.43;;;51.30;22.90;;;;;;10371980;28;20225;-73
2022/07/25 11:04:58;;;;;;;6.78;6.10;;;51.30;23.00;;;;;;10349118;28;20225;-72
2022/07/25 11:10:00;;;;;;;9.85;6.13;;;50.10;23.70;;;;;;10366812;28;20282;-72
2022/07/25 11:15:05;;;;;;;6.20;5.70;;;48.60;24.70;;;;;;10362886;28;20285;-72
2022/07/25 11:20:08;;;;;;;6.60;6.00;;;46.70;25.80;;;;;;10368268;28;20214;-72
2022/07/25 11:25:13;;;;;;;7.13;6.47;;;45.60;27.00;;;;;;10365698;28;20192;-72
2022/07/25 11:30:18;;;;;;;8.97;6.53;;;46.00;26.80;;;;;;10365156;28;20578;-75
2022/07/25 11:35:30;;;;;;;6.90;6.03;;;46.40;26.40;;;;;;10363440;28;20202;-75
2022/07/25 11:41:00;;;;;;;7.23;6.23;;;46.60;26.90;;;;;;10373645;28;20212;-75
2022/07/25 11:46:05;;;;;;;9.40;6.67;;;47.00;26.40;;;;;;10369997;28;20225;-76
2022/07/25 11:51:21;;;;;;;6.90;6.20;;;44.80;28.40;;;;;;10368190;28;20308;-75
2022/07/25 11:56:23;;;;;;;8.07;5.80;;;43.20;29.80;;;;;;10362575;28;20298;-75
2022/07/25 12:01:24;;;;;;;7.47;5.87;;;42.10;31.10;;;;;;10368764;28;20225;-73
2022/07/25 12:06:28;;;;;;;7.47;6.10;;;41.60;31.70;;;;;;10363844;28;20225;-73
2022/07/25 12:11:29;;;;;;;6.70;6.00;;;40.20;36.40;;;;;;10364700;28;20217;-75
2022/07/25 12:16:31;;;;;;;8.47;4.93;;;38.80;36.60;;;;;;10372280;28;20221;-74
2022/07/25 12:21:37;;;;;;;6.87;4.77;;;38.30;36.70;;;;;;10357494;28;20218;-74
2022/07/25 12:26:41;;;;;;;10.20;5.43;;;38.70;35.50;;;;;;10369875;28;20217;-75
2022/07/25 12:31:48;;;;;;;10.93;5.70;;;38.80;35.20;;;;;;10364696;28;20213;-74
2022/07/25 12:36:51;;;;;;;6.20;4.83;;;38.50;35.40;;;;;;10367124;28;20226;-73
2022/07/25 12:41:55;;;;;;;5.50;5.00;;;38.00;34.50;;;;;;10365354;28;20213;-74
2022/07/25 12:46:56;;;;;;;6.83;5.37;;;37.60;34.80;;;;;;10366902;28;20255;-74
2022/07/25 12:52:11;;;;;;;7.53;5.20;;;37.20;35.10;;;;;;10365444;28;20227;-75
2022/07/25 12:57:13;;;;;;;5.60;5.10;;;36.90;35.60;;;;;;10356201;28;20779;-73
2022/07/25 13:02:14;;;;;;;5.53;5.00;;;36.80;36.10;;;;;;10367632;28;20213;-74
2022/07/25 13:07:14;;;;;;;6.37;5.47;;;36.50;36.50;;;;;;10366960;28;20707;-73
2022/07/25 13:12:16;;;;;;;8.27;5.20;;;36.60;37.40;;;;;;10364655;28;20221;-73
2022/07/25 13:17:17;;;;;;;7.90;6.00;;;37.00;36.10;;;;;;10364521;28;20221;-75
2022/07/25 13:22:20;;;;;;;7.23;5.23;;;37.40;36.10;;;;;;10369003;28;20221;-73
2022/07/25 13:27:22;;;;;;;6.43;5.40;;;37.60;35.90;;;;;;10369070;28;20688;-72
2022/07/25 13:32:22;;;;;;;11.53;6.17;;;37.60;36.00;;;;;;10374084;28;20227;-73
2022/07/25 13:37:26;;;;;;;9.27;5.63;;;37.40;36.00;;;;;;10381622;28;20228;-77
2022/07/25 13:42:27;;;;;;;7.63;5.83;;;37.00;36.80;;;;;;10368387;28;20224;-74
2022/07/25 13:47:29;;;;;;;9.13;6.00;;;36.90;37.50;;;;;;10370417;28;20213;-74
2022/07/25 13:52:29;;;;;;;6.67;6.00;;;36.50;38.00;;;;;;10368973;28;20777;-75
2022/07/25 13:57:32;;;;;;;6.13;5.53;;;36.40;38.20;;;;;;10375331;28;20229;-75
2022/07/25 14:02:32;;;;;;;9.03;6.37;;;36.50;38.50;;;;;;10386201;28;20236;-74
2022/07/25 14:07:34;;;;;;;7.90;5.80;;;36.90;38.00;;;;;;10370948;28;20237;-73
2022/07/25 14:12:36;;;;;;;6.33;5.73;;;37.10;37.30;;;;;;10366340;28;20217;-74
2022/07/25 14:17:37;;;;;;;6.63;6.10;;;37.40;37.00;;;;;;10367383;28;20235;-74
2022/07/25 14:22:40;;;;;;;6.60;5.90;;;37.40;37.00;;;;;;10372826;28;20304;-75
2022/07/25 14:27:44;;;;;;;17.07;6.33;;;36.80;37.70;;;;;;10367324;28;20715;-74
2022/07/25 14:32:45;;;;;;;10.10;6.20;;;35.90;44.40;;;;;;10373327;28;20217;-73
2022/07/25 14:37:46;;;;;;;9.50;6.10;;;35.30;45.80;;;;;;10388958;28;20236;-73
2022/07/25 14:42:47;;;;;;;6.50;5.77;;;35.30;45.50;;;;;;10371007;28;20221;-74
2022/07/25 14:47:48;;;;;;;7.13;5.50;;;35.20;44.80;;;;;;10362369;28;20259;-73
2022/07/25 14:52:49;;;;;;;6.00;5.40;;;35.10;45.50;;;;;;10367495;28;20270;-74
2022/07/25 14:57:49;;;;;;;6.03;5.53;;;35.20;44.20;;;;;;10363843;28;20598;-72
2022/07/25 15:02:50;;;;;;;6.80;6.20;;;35.30;43.40;;;;;;10368371;28;20226;-73
2022/07/25 15:07:51;;;;;;;6.77;6.07;;;35.10;43.30;;;;;;10366990;28;20219;-72
2022/07/25 15:12:51;;;;;;;6.90;5.60;;;35.30;43.20;;;;;;10369096;28;20222;-73
2022/07/25 15:17:52;;;;;;;6.53;5.77;;;35.50;42.30;;;;;;10371070;28;20586;-73
2022/07/25 15:22:53;;;;;;;9.00;6.03;;;35.40;42.50;;;;;;10367870;28;20695;-73
2022/07/25 15:27:53;;;;;;;6.60;5.87;;;35.10;43.00;;;;;;10367895;28;20975;-71
2022/07/25 15:32:54;;;;;;;8.37;5.83;;;35.10;43.80;;;;;;10363284;28;20225;-71
2022/07/25 15:37:54;;;;;;;6.73;6.00;;;35.10;44.70;;;;;;10367080;28;20597;-72
2022/07/25 15:42:55;;;;;;;8.53;6.00;;;35.20;44.20;;;;;;10361583;28;20222;-73
2022/07/25 15:47:56;;;;;;;10.27;5.93;;;35.30;43.70;;;;;;10384475;28;20309;-71
2022/07/25 15:52:59;;;;;;;9.70;6.60;;;35.10;43.20;;;;;;10362015;28;20236;-71
2022/07/25 15:58:00;;;;;;;6.50;5.37;;;34.80;42.40;;;;;;10358759;28;20264;-71
2022/07/25 16:03:00;;;;;;;6.33;5.37;;;34.80;42.50;;;;;;10346006;28;20229;-71
2022/07/25 16:08:02;;;;;;;8.17;6.40;;;34.80;42.50;;;;;;10357625;28;20221;-71
2022/07/25 16:13:02;;;;;;;13.97;5.87;;;34.80;41.80;;;;;;10355823;28;20571;-72
2022/07/25 16:18:03;;;;;;;11.53;6.17;;;34.70;41.60;;;;;;10350323;28;20226;-71
2022/07/25 16:23:04;;;;;;;8.83;5.47;;;34.40;41.80;;;;;;10351727;28;20225;-72
2022/07/25 16:28:05;;;;;;;13.50;5.47;;;34.00;42.50;;;;;;10349152;28;20312;-71
2022/07/25 16:33:05;;;;;;;6.73;5.03;;;33.60;43.20;;;;;;10355281;28;20209;-71
2022/07/25 16:38:06;;;;;;;9.53;5.33;;;33.30;43.70;;;;;;10348980;28;20251;-71
2022/07/25 16:43:07;;;;;;;6.53;4.97;;;33.00;43.80;;;;;;10354594;28;20640;-71
2022/07/25 16:48:07;;;;;;;12.53;5.40;;;32.80;43.90;;;;;;10351457;28;20317;-71
2022/07/25 16:53:08;;;;;;;9.20;4.70;;;32.60;43.30;;;;;;10345471;28;20235;-71
2022/07/25 16:58:08;;;;;;;6.77;4.60;;;32.40;43.00;;;;;;10370486;28;20239;-71
2022/07/25 17:03:09;;;;;;;10.03;4.37;;;32.30;42.70;;;;;;10366544;28;20216;-71
2022/07/25 17:08:10;;;;;;;5.30;4.50;;;32.30;42.30;;;;;;10363561;28;20747;-71
2022/07/25 17:13:10;;;;;;;6.57;4.60;;;32.30;42.00;;;;;;10369089;28;20244;-72
2022/07/25 17:18:12;;;;;;;4.73;4.33;;;32.10;42.60;;;;;;10362849;28;20719;-71
2022/07/25 17:23:13;;;;;;;5.93;4.20;;;32.10;43.00;;;;;;10355667;28;20222;-72
2022/07/25 17:28:14;;;;;;;5.53;4.47;;;31.90;43.30;;;;;;10358725;28;20602;-72
2022/07/25 17:33:18;;;;;;;10.63;4.53;;;31.80;43.70;;;;;;10354279;28;20276;-71
2022/07/25 17:38:18;;;;;;;9.43;4.77;;;31.80;43.70;;;;;;10359002;28;20252;-72
2022/07/25 17:43:19;;;;;;;5.83;3.50;;;31.60;44.50;;;;;;10352711;28;20222;-71
2022/07/25 17:48:19;;;;;;;7.73;3.47;;;31.40;45.10;;;;;;10356533;28;20229;-72
2022/07/25 17:53:20;;;;;;;9.13;2.90;;;31.10;45.30;;;;;;10353379;28;20225;-71
2022/07/25 17:58:20;;;;;;;4.57;2.80;;;30.70;44.50;;;;;;10351647;28;20293;-71
2022/07/25 18:03:22;;;;;;;8.90;2.80;;;30.50;43.90;;;;;;10359175;28;20235;-71
2022/07/25 18:08:23;;;;;;;6.80;2.40;;;30.30;44.20;;;;;;10358144;28;20276;-71
2022/07/25 18:13:23;;;;;;;4.17;2.23;;;30.10;45.30;;;;;;10351438;28;20292;-70
2022/07/25 18:18:24;;;;;;;4.07;3.23;;;29.90;46.20;;;;;;10364825;28;20228;-71
2022/07/25 18:23:25;;;;;;;4.57;2.20;;;29.70;48.90;;;;;;10357283;28;20249;-70
2022/07/25 18:28:26;;;;;;;4.43;2.60;;;29.60;48.10;;;;;;10364735;28;20279;-72
2022/07/25 18:33:27;;;;;;;4.80;1.97;;;29.50;48.00;;;;;;10358719;28;20283;-71
2022/07/25 18:38:27;;;;;;;7.00;1.93;;;29.30;48.10;;;;;;10355211;28;20271;-73
2022/07/25 18:43:28;;;;;;;9.63;2.57;;;29.20;47.80;;;;;;10361630;28;20260;-71
2022/07/25 18:48:29;;;;;;;3.27;1.90;;;28.90;47.70;;;;;;10349841;28;20241;-71
2022/07/25 18:53:29;;;;;;;11.07;2.13;;;28.80;48.00;;;;;;10332248;28;20599;-71
2022/07/25 18:58:30;;;;;;;12.53;2.17;;;28.60;48.60;;;;;;10347741;28;20240;-71
2022/07/25 19:03:32;;;;;;;7.37;1.60;;;28.30;49.00;;;;;;10361780;28;20228;-72
2022/07/25 19:08:33;;;;;;;7.67;1.73;;;28.10;49.30;;;;;;10365326;28;20323;-72
2022/07/25 19:13:38;;;;;;;8.13;1.80;;;27.90;49.60;;;;;;10357276;28;20342;-70
2022/07/25 19:18:39;;;;;;;7.53;1.90;;;27.70;50.00;;;;;;10372083;28;20241;-72
2022/07/25 19:23:40;;;;;;;5.93;1.57;;;27.40;50.40;;;;;;10356691;28;20233;-70
2022/07/25 19:28:40;;;;;;;5.57;1.70;;;27.40;52.00;;;;;;10354822;28;20217;-71
2022/07/25 19:33:41;;;;;;;3.20;1.43;;;27.40;51.80;;;;;;10356796;28;20639;-71
2022/07/25 19:38:42;;;;;;;6.43;1.50;;;27.30;51.80;;;;;;10350460;28;20224;-71
2022/07/25 19:43:50;;;;;;;2.50;1.43;;;27.30;51.90;;;;;;10353781;28;20224;-69
2022/07/25 19:48:51;;;;;;;3.93;1.70;;;27.20;52.40;;;;;;10350673;28;20204;-70
2022/07/25 19:53:52;;;;;;;6.07;1.80;;;27.20;52.60;;;;;;10327277;28;20215;-70
2022/07/25 19:58:53;;;;;;;3.43;1.70;;;27.00;53.00;;;;;;10338148;28;20218;-69
2022/07/25 20:03:53;;;;;;;7.87;2.00;;;26.90;53.20;;;;;;10350980;28;20265;-70
2022/07/25 20:08:57;;;;;;;3.80;1.43;;;26.70;53.70;;;;;;10351734;28;20268;-71
2022/07/25 20:13:59;;;;;;;5.60;1.30;;;26.60;53.30;;;;;;10351813;28;20287;-72
2022/07/25 20:18:59;;;;;;;6.03;1.40;;;26.50;54.30;;;;;;10365683;28;20739;-72
2022/07/25 20:24:00;;;;;;;3.57;1.37;;;26.40;54.20;;;;;;10355717;28;20229;-71
2022/07/25 20:29:01;;;;;;;3.57;2.00;;;26.30;54.30;;;;;;10352274;28;20220;-71
2022/07/25 20:34:02;;;;;;;2.73;1.10;;;26.20;54.40;;;;;;10357250;28;20224;-70
2022/07/25 20:39:02;;;;;;;3.23;1.70;;;26.10;54.80;;;;;;10350430;28;20225;-70
2022/07/25 20:44:04;;;;;;;2.00;1.33;;;26.00;55.20;;;;;;10358383;28;20218;-70
2022/07/25 20:49:07;;;;;;;2.60;1.17;;;25.90;55.50;;;;;;10354860;28;20231;-72
2022/07/25 20:54:08;;;;;;;2.17;1.60;;;25.80;55.90;;;;;;10358252;28;20224;-71
2022/07/25 20:59:09;;;;;;;3.37;1.80;;;25.80;56.20;;;;;;10369354;28;20251;-71
2022/07/25 21:04:09;;;;;;;2.83;1.37;;;25.70;56.60;;;;;;10348930;28;20252;-71
2022/07/25 21:09:10;;;;;;;2.97;1.40;;;25.60;56.80;;;;;;10359978;28;20206;-72
2022/07/25 21:14:12;;;;;;;1.77;1.60;;;25.60;57.10;;;;;;10354419;28;20224;-71
2022/07/25 21:19:12;;;;;;;2.97;1.50;;;25.50;57.30;;;;;;10353882;28;20233;-71
2022/07/25 21:24:13;;;;;;;1.63;1.40;;;25.50;57.60;;;;;;10357555;28;20591;-72
2022/07/25 21:29:14;;;;;;;5.00;1.73;;;25.30;57.90;;;;;;10352379;28;20310;-72
2022/07/25 21:34:15;;;;;;;5.53;1.40;;;25.30;58.40;;;;;;10345124;28;20218;-72
2022/07/25 21:39:16;;;;;;;3.50;1.40;;;25.20;58.40;;;;;;10352212;28;20221;-72
2022/07/25 21:44:17;;;;;;;2.57;1.60;;;25.10;58.80;;;;;;10345189;28;20263;-71
2022/07/25 21:54:36;;;;;;;3.90;1.80;;;24.90;59.30;;;;;;10359515;28;20221;-71
2022/07/25 21:59:37;;;;;;;5.93;1.67;;;24.80;60.00;;;;;;10353219;28;20218;-71
2022/07/25 22:04:38;;;;;;;1.73;1.40;;;24.60;60.40;;;;;;10358890;28;20324;-71
2022/07/25 22:09:39;;;;;;;3.43;1.53;;;24.50;60.90;;;;;;10359451;28;20223;-71
2022/07/25 22:14:39;;;;;;;1.90;1.40;;;24.40;61.50;;;;;;10357686;28;20223;-72
2022/07/25 22:19:40;;;;;;;2.03;1.47;;;24.40;61.90;;;;;;10352876;28;20226;-72
2022/07/25 22:24:40;;;;;;;4.10;1.60;;;24.40;62.00;;;;;;10359027;28;20232;-70
2022/07/25 22:29:41;;;;;;;3.03;2.00;;;24.30;62.40;;;;;;10359038;28;20218;-73
2022/07/25 22:34:42;;;;;;;4.90;1.77;;;24.20;62.80;;;;;;10358795;28;20703;-72
2022/07/25 22:39:42;;;;;;;2.70;1.43;;;24.10;63.20;;;;;;10364819;28;20217;-71
2022/07/25 22:44:43;;;;;;;2.43;1.70;;;24.00;63.90;;;;;;10359483;28;20218;-72
2022/07/25 22:49:44;;;;;;;2.33;1.43;;;23.90;64.30;;;;;;10364783;28;20936;-72
2022/07/25 22:54:44;;;;;;;4.30;1.40;;;23.90;64.70;;;;;;10362669;28;20218;-71
2022/07/25 22:59:48;;;;;;;2.23;1.50;;;23.90;64.80;;;;;;10365384;28;20221;-71
2022/07/25 23:04:48;;;;;;;3.03;1.50;;;23.90;65.00;;;;;;10369367;28;20255;-71
2022/07/25 23:09:49;;;;;;;2.13;1.53;;;23.80;65.50;;;;;;10350620;28;20781;-71
2022/07/25 23:14:49;;;;;;;1.70;1.60;;;23.80;65.70;;;;;;10356604;28;20214;-71
2022/07/25 23:19:51;;;;;;;2.50;1.53;;;24.00;65.60;;;;;;10361043;28;20641;-71
2022/07/25 23:24:53;;;;;;;4.93;2.00;;;24.10;65.40;;;;;;10359264;28;20253;-71
2022/07/25 23:29:53;;;;;;;2.27;1.40;;;24.00;65.60;;;;;;10356565;28;20221;-70
2022/07/25 23:34:54;;;;;;;4.27;1.90;;;23.90;66.40;;;;;;10350263;28;20217;-71
2022/07/25 23:39:55;;;;;;;3.93;1.80;;;23.80;67.30;;;;;;10363065;28;20233;-72
2022/07/25 23:44:56;;;;;;;3.13;2.20;;;23.70;68.50;;;;;;10351868;28;20237;-70
2022/07/25 23:49:56;;;;;;;4.53;1.90;;;23.60;69.70;;;;;;10351534;28;20221;-71
2022/07/25 23:54:57;;;;;;;5.10;2.00;;;23.40;70.70;;;;;;10347410;28;20598;-71
2022/07/25 23:59:58;;;;;;;5.83;2.83;;;23.30;71.30;;;;;;10366865;28;20599;-70
